Погода Анкарана неделю

Центральная Анатолия, Турция

05 - 11 сентября
  • 05сентября
    Сегодня
    +16°
    +31°
    Ясно и безоблачно
    ВремяПогодаТемператураВлажностьДавлениеВетер, м/сВероятность осадков
    00:00Ясно и безоблачно+21°C46 %691 мм2.5 м/с2 %
    03:00Практически безоблачно+18°C52 %691 мм2.6 м/с2 %
    06:00Ясно и безоблачно+17°C62 %691 мм2.3 м/с2 %
    09:00Ясно и безоблачно+23°C45 %693 мм2.5 м/с2 %
    12:00Ясно и безоблачно+28°C31 %693 мм2.3 м/с2 %
    15:00Ясно и безоблачно+30°C25 %692 мм2.3 м/с2 %
    18:00Ясно и безоблачно+29°C23 %691 мм2.7 м/с2 %
    21:00Ясно и безоблачно+25°C27 %691 мм2.4 м/с2 %
  • 06сентября
    Воскресенье
    +15°
    +32°
    Ясно и безоблачно
    ВремяПогодаТемператураВлажностьДавлениеВетер, м/сВероятность осадков
    00:00Ясно и безоблачно+21°C31 %691 мм2.5 м/с2 %
    03:00Ясно и безоблачно+18°C43 %691 мм2.6 м/с2 %
    06:00Ясно и безоблачно+16°C55 %690 мм2.2 м/с2 %
    09:00Ясно и безоблачно+23°C41 %693 мм2.0 м/с2 %
    12:00Ясно и безоблачно+28°C30 %693 мм2.1 м/с2 %
    15:00Ясно и безоблачно+31°C22 %692 мм2.4 м/с2 %
    18:00Ясно и безоблачно+30°C21 %691 мм3.1 м/с2 %
    21:00Ясно и безоблачно+25°C33 %693 мм3.1 м/с2 %
  • 07сентября
    Понедельник
    +11°
    +27°
    Ясно и безоблачно
    ВремяПогодаТемператураВлажностьДавлениеВетер, м/сВероятность осадков
    00:00Ясно и безоблачно+20°C43 %693 мм2.4 м/с2 %
    03:00Ясно и безоблачно+18°C51 %693 мм2.9 м/с2 %
    06:00Ясно и безоблачно+15°C63 %694 мм2.5 м/с2 %
    09:00Ясно и безоблачно+21°C41 %696 мм3.1 м/с2 %
    12:00Ясно и безоблачно+25°C27 %696 мм3.0 м/с2 %
    15:00Ясно и безоблачно+27°C24 %695 мм3.1 м/с2 %
    18:00Ясно и безоблачно+25°C24 %693 мм3.3 м/с2 %
    21:00Ясно и безоблачно+20°C36 %694 мм3.7 м/с2 %
  • 08сентября
    Вторник
    +12°
    +26°
    Ясно и безоблачно
    ВремяПогодаТемператураВлажностьДавлениеВетер, м/сВероятность осадков
    00:00Ясно и безоблачно+16°C44 %693 мм2.7 м/с2 %
    03:00Ясно и безоблачно+14°C54 %692 мм2.7 м/с2 %
    06:00Ясно и безоблачно+12°C64 %692 мм2.4 м/с2 %
    09:00Ясно и безоблачно+18°C54 %693 мм2.5 м/с2 %
    12:00Ясно и безоблачно+22°C35 %693 мм2.2 м/с2 %
    15:00Ясно и безоблачно+25°C26 %692 мм2.4 м/с2 %
    18:00Ясно и безоблачно+25°C22 %690 мм2.8 м/с2 %
    21:00Ясно и безоблачно+20°C27 %690 мм2.9 м/с2 %
  • 09сентября
    Среда
    +13°
    +28°
    Ясно и безоблачно
    ВремяПогодаТемператураВлажностьДавлениеВетер, м/сВероятность осадков
    00:00Ясно и безоблачно+16°C35 %690 мм2.5 м/с2 %
    03:00Ясно и безоблачно+15°C50 %689 мм2.7 м/с2 %
    06:00Ясно и безоблачно+13°C63 %689 мм2.5 м/с2 %
    09:00Ясно и безоблачно+19°C49 %690 мм2.4 м/с2 %
    12:00Ясно и безоблачно+24°C34 %690 мм2.2 м/с2 %
    15:00Ясно и безоблачно+27°C26 %689 мм2.3 м/с2 %
    18:00Ясно и безоблачно+27°C23 %688 мм2.1 м/с2 %
    21:00Ясно и безоблачно+22°C27 %688 мм2.3 м/с2 %
  • 10сентября
    Четверг
    +15°
    +30°
    Ясно и безоблачно
    ВремяПогодаТемператураВлажностьДавлениеВетер, м/сВероятность осадков
    03:00Ясно и безоблачно+16°C50 %687 мм2.8 м/с2 %
    09:00Ясно и безоблачно+20°C45 %689 мм2.4 м/с2 %
    15:00Ясно и безоблачно+29°C24 %689 мм2.1 м/с2 %
    21:00Ясно и безоблачно+25°C26 %691 мм1.4 м/с2 %
  • 11сентября
    Пятница
    +16°
    +32°
    Ясно и безоблачно
    ВремяПогодаТемператураВлажностьДавлениеВетер, м/сВероятность осадков
    03:00Ясно и безоблачно+17°C41 %690 мм1.3 м/с2 %
    09:00Ясно и безоблачно+21°C36 %692 мм0.9 м/с2 %
    15:00Ясно и безоблачно+32°C15 %692 мм2.5 м/с2 %
    21:00Ясно и безоблачно+25°C22 %691 мм1.6 м/с2 %
Мы используем cookies
Соглашаюсь